Terminal Aerodrome Forecast
Issued by NWS Wilmington, NC

Current Version | Previous Version | Graphics & Text | Print | Product List | Glossary Off
Versions: 1 2 3 4 5 6 7 8 9 10 11 12

000
FTUS42 KILM 201100
TAFLBT
TAF
KLBT 201120Z 2012/2112 VRB03KT P6SM SKC
     FM201500 19006KT P6SM FEW040
     FM202300 22003KT P6SM BKN040
     FM210600 VRB01KT P6SM SCT040=

USA.gov is the U.S. government's official web portal to all federal, state and local government web resources and services.